sensor_id;sensor_type;location;lat;lon;timestamp;pressure;altitude;pressure_sealevel;temperature;humidity
61900;BME280;47853;55.890;37.664;2023-10-19T00:01:09;98290.94;;;10.66;100.00
61900;BME280;47853;55.890;37.664;2023-10-19T00:03:35;98289.78;;;10.76;100.00
61900;BME280;47853;55.890;37.664;2023-10-19T00:06:00;98287.59;;;11.35;100.00
61900;BME280;47853;55.890;37.664;2023-10-19T00:08:25;98294.56;;;10.87;100.00
61900;BME280;47853;55.890;37.664;2023-10-19T00:10:53;98289.78;;;10.40;100.00
61900;BME280;47853;55.890;37.664;2023-10-19T00:13:19;98289.69;;;9.83;100.00
61900;BME280;47853;55.890;37.664;2023-10-19T00:15:45;98285.53;;;9.96;100.00
61900;BME280;47853;55.890;37.664;2023-10-19T00:18:10;98294.75;;;10.00;100.00
61900;BME280;47853;55.890;37.664;2023-10-19T00:20:35;98298.22;;;10.51;100.00
61900;BME280;47853;55.890;37.664;2023-10-19T00:23:01;98252.38;;;9.63;100.00
61900;BME280;47853;55.890;37.664;2023-10-19T00:25:26;98293.66;;;9.72;100.00
61900;BME280;47853;55.890;37.664;2023-10-19T00:27:51;98280.13;;;9.67;100.00
61900;BME280;47853;55.890;37.664;2023-10-19T00:30:17;98286.38;;;9.81;100.00
61900;BME280;47853;55.890;37.664;2023-10-19T00:32:42;98287.06;;;9.47;100.00
61900;BME280;47853;55.890;37.664;2023-10-19T00:35:08;98285.84;;;9.27;100.00
61900;BME280;47853;55.890;37.664;2023-10-19T00:37:33;98286.19;;;9.39;100.00
61900;BME280;47853;55.890;37.664;2023-10-19T00:39:59;98292.25;;;9.18;100.00
61900;BME280;47853;55.890;37.664;2023-10-19T00:42:24;98290.13;;;9.28;100.00
61900;BME280;47853;55.890;37.664;2023-10-19T00:44:49;98294.22;;;9.90;100.00
61900;BME280;47853;55.890;37.664;2023-10-19T00:47:15;98292.53;;;9.82;100.00
61900;BME280;47853;55.890;37.664;2023-10-19T00:49:40;98287.19;;;8.87;100.00
61900;BME280;47853;55.890;37.664;2023-10-19T00:52:07;98285.72;;;9.36;100.00
61900;BME280;47853;55.890;37.664;2023-10-19T00:54:34;98284.00;;;9.86;100.00
61900;BME280;47853;55.890;37.664;2023-10-19T00:57:01;98292.66;;;9.95;100.00
61900;BME280;47853;55.890;37.664;2023-10-19T00:59:27;98292.78;;;9.28;100.00
61900;BME280;47853;55.890;37.664;2023-10-19T01:01:53;98289.88;;;10.32;100.00
61900;BME280;47853;55.890;37.664;2023-10-19T01:04:19;98292.97;;;10.07;100.00
61900;BME280;47853;55.890;37.664;2023-10-19T01:06:45;98292.56;;;10.10;100.00
61900;BME280;47853;55.890;37.664;2023-10-19T01:09:11;98284.09;;;9.35;100.00
61900;BME280;47853;55.890;37.664;2023-10-19T01:11:37;98282.69;;;9.17;100.00
61900;BME280;47853;55.890;37.664;2023-10-19T01:14:17;98278.00;;;9.78;100.00
61900;BME280;47853;55.890;37.664;2023-10-19T01:16:43;98281.31;;;9.43;100.00
61900;BME280;47853;55.890;37.664;2023-10-19T01:19:08;98288.19;;;8.70;100.00
61900;BME280;47853;55.890;37.664;2023-10-19T01:21:34;98281.25;;;8.84;100.00
61900;BME280;47853;55.890;37.664;2023-10-19T01:23:59;98291.44;;;9.03;100.00
61900;BME280;47853;55.890;37.664;2023-10-19T01:26:25;98291.28;;;9.78;100.00
61900;BME280;47853;55.890;37.664;2023-10-19T01:28:50;98272.13;;;9.61;100.00
61900;BME280;47853;55.890;37.664;2023-10-19T01:31:18;98274.72;;;10.48;100.00
61900;BME280;47853;55.890;37.664;2023-10-19T01:33:44;98286.72;;;10.43;100.00
61900;BME280;47853;55.890;37.664;2023-10-19T01:36:10;98276.75;;;9.74;100.00
61900;BME280;47853;55.890;37.664;2023-10-19T01:38:36;98287.34;;;9.52;100.00
61900;BME280;47853;55.890;37.664;2023-10-19T01:41:03;98294.84;;;9.70;100.00
61900;BME280;47853;55.890;37.664;2023-10-19T01:43:29;98280.81;;;10.41;100.00
61900;BME280;47853;55.890;37.664;2023-10-19T01:45:54;98282.34;;;10.07;100.00
61900;BME280;47853;55.890;37.664;2023-10-19T01:48:20;98281.69;;;10.55;100.00
61900;BME280;47853;55.890;37.664;2023-10-19T01:50:45;98278.38;;;9.96;100.00
61900;BME280;47853;55.890;37.664;2023-10-19T01:53:10;98285.56;;;10.02;100.00
61900;BME280;47853;55.890;37.664;2023-10-19T01:55:39;98288.78;;;9.18;100.00
61900;BME280;47853;55.890;37.664;2023-10-19T01:58:04;98286.50;;;10.16;100.00
61900;BME280;47853;55.890;37.664;2023-10-19T02:00:30;98286.00;;;10.06;100.00
61900;BME280;47853;55.890;37.664;2023-10-19T02:02:55;98282.09;;;9.80;100.00
61900;BME280;47853;55.890;37.664;2023-10-19T02:05:20;98279.63;;;10.00;100.00
61900;BME280;47853;55.890;37.664;2023-10-19T02:07:46;98279.19;;;9.17;100.00
61900;BME280;47853;55.890;37.664;2023-10-19T02:10:11;98279.66;;;9.20;100.00
61900;BME280;47853;55.890;37.664;2023-10-19T02:12:37;98277.28;;;9.91;100.00
61900;BME280;47853;55.890;37.664;2023-10-19T02:15:02;98267.00;;;10.95;100.00
61900;BME280;47853;55.890;37.664;2023-10-19T02:17:28;98277.50;;;10.74;100.00
61900;BME280;47853;55.890;37.664;2023-10-19T02:19:53;98275.97;;;10.87;100.00
61900;BME280;47853;55.890;37.664;2023-10-19T02:22:18;98274.09;;;11.29;100.00
61900;BME280;47853;55.890;37.664;2023-10-19T02:24:44;98277.84;;;11.69;100.00
61900;BME280;47853;55.890;37.664;2023-10-19T02:27:09;98274.81;;;11.99;97.79
61900;BME280;47853;55.890;37.664;2023-10-19T02:29:34;98278.28;;;11.86;96.81
61900;BME280;47853;55.890;37.664;2023-10-19T02:32:00;98276.59;;;10.54;100.00
61900;BME280;47853;55.890;37.664;2023-10-19T02:34:25;98273.09;;;10.88;100.00
61900;BME280;47853;55.890;37.664;2023-10-19T02:36:50;98267.06;;;12.04;99.58
61900;BME280;47853;55.890;37.664;2023-10-19T02:39:16;98269.72;;;12.24;94.45
61900;BME280;47853;55.890;37.664;2023-10-19T02:41:43;98271.09;;;12.67;90.08
61900;BME280;47853;55.890;37.664;2023-10-19T02:44:16;98281.16;;;11.98;90.72
61900;BME280;47853;55.890;37.664;2023-10-19T02:46:43;98282.00;;;11.09;96.23
61900;BME280;47853;55.890;37.664;2023-10-19T02:49:11;98270.53;;;12.31;92.95
61900;BME280;47853;55.890;37.664;2023-10-19T02:51:40;98269.34;;;13.00;85.04
61900;BME280;47853;55.890;37.664;2023-10-19T02:54:07;98274.16;;;12.77;85.99
61900;BME280;47853;55.890;37.664;2023-10-19T02:56:33;98279.00;;;13.40;83.39
61900;BME280;47853;55.890;37.664;2023-10-19T02:58:59;98267.03;;;12.44;85.07
61900;BME280;47853;55.890;37.664;2023-10-19T03:01:24;98272.56;;;12.56;84.66
61900;BME280;47853;55.890;37.664;2023-10-19T03:03:54;98264.97;;;12.46;88.12
61900;BME280;47853;55.890;37.664;2023-10-19T03:06:23;98269.00;;;12.76;85.37
61900;BME280;47853;55.890;37.664;2023-10-19T03:08:49;98271.94;;;12.61;84.43
61900;BME280;47853;55.890;37.664;2023-10-19T03:11:15;98268.59;;;12.79;83.13
61900;BME280;47853;55.890;37.664;2023-10-19T03:13:40;98268.50;;;13.06;83.91
61900;BME280;47853;55.890;37.664;2023-10-19T03:16:06;98264.91;;;11.45;91.18
61900;BME280;47853;55.890;37.664;2023-10-19T03:18:32;98262.25;;;11.45;97.88
61900;BME280;47853;55.890;37.664;2023-10-19T03:20:57;98270.78;;;10.72;100.00
61900;BME280;47853;55.890;37.664;2023-10-19T03:23:22;98262.59;;;11.22;99.15
61900;BME280;47853;55.890;37.664;2023-10-19T03:25:54;98264.13;;;11.58;98.01
61900;BME280;47853;55.890;37.664;2023-10-19T03:28:19;98264.28;;;11.43;98.95
61900;BME280;47853;55.890;37.664;2023-10-19T03:30:45;98269.22;;;9.99;100.00
61900;BME280;47853;55.890;37.664;2023-10-19T03:33:10;98262.16;;;9.84;100.00
61900;BME280;47853;55.890;37.664;2023-10-19T03:35:37;98268.41;;;9.77;100.00
61900;BME280;47853;55.890;37.664;2023-10-19T03:38:02;98271.81;;;10.42;100.00
61900;BME280;47853;55.890;37.664;2023-10-19T03:40:28;98276.38;;;10.27;100.00
61900;BME280;47853;55.890;37.664;2023-10-19T03:42:53;98280.81;;;10.41;100.00
61900;BME280;47853;55.890;37.664;2023-10-19T03:45:19;98280.53;;;9.64;100.00
61900;BME280;47853;55.890;37.664;2023-10-19T03:47:44;98285.22;;;9.25;100.00
61900;BME280;47853;55.890;37.664;2023-10-19T03:50:09;98275.72;;;10.18;100.00
61900;BME280;47853;55.890;37.664;2023-10-19T03:52:35;98278.75;;;9.71;100.00
61900;BME280;47853;55.890;37.664;2023-10-19T03:55:01;98282.97;;;10.09;100.00
61900;BME280;47853;55.890;37.664;2023-10-19T03:57:26;98278.84;;;10.99;100.00
61900;BME280;47853;55.890;37.664;2023-10-19T03:59:52;98278.31;;;12.06;100.00
61900;BME280;47853;55.890;37.664;2023-10-19T04:02:17;98286.94;;;10.77;100.00
61900;BME280;47853;55.890;37.664;2023-10-19T04:04:43;98287.47;;;9.87;100.00
61900;BME280;47853;55.890;37.664;2023-10-19T04:07:12;98280.81;;;11.32;100.00
61900;BME280;47853;55.890;37.664;2023-10-19T04:09:37;98287.06;;;11.66;100.00
61900;BME280;47853;55.890;37.664;2023-10-19T04:12:03;98275.63;;;11.93;100.00
61900;BME280;47853;55.890;37.664;2023-10-19T04:14:28;98279.97;;;12.34;97.22
61900;BME280;47853;55.890;37.664;2023-10-19T04:16:54;98275.03;;;12.44;92.26
61900;BME280;47853;55.890;37.664;2023-10-19T04:19:19;98279.47;;;12.84;91.07
61900;BME280;47853;55.890;37.664;2023-10-19T04:21:44;98276.81;;;11.70;99.71
61900;BME280;47853;55.890;37.664;2023-10-19T04:24:10;98276.84;;;11.90;91.90
61900;BME280;47853;55.890;37.664;2023-10-19T04:26:36;98293.09;;;9.04;100.00
61900;BME280;47853;55.890;37.664;2023-10-19T04:29:02;98275.75;;;9.38;100.00
61900;BME280;47853;55.890;37.664;2023-10-19T04:31:27;98296.25;;;9.66;100.00
61900;BME280;47853;55.890;37.664;2023-10-19T04:33:52;98285.75;;;10.86;100.00
61900;BME280;47853;55.890;37.664;2023-10-19T04:36:18;98294.81;;;9.85;100.00
61900;BME280;47853;55.890;37.664;2023-10-19T04:38:43;98294.94;;;9.40;100.00
61900;BME280;47853;55.890;37.664;2023-10-19T04:41:10;98297.38;;;10.00;100.00
61900;BME280;47853;55.890;37.664;2023-10-19T04:43:36;98299.66;;;10.88;100.00
61900;BME280;47853;55.890;37.664;2023-10-19T04:46:08;98288.50;;;11.75;100.00
61900;BME280;47853;55.890;37.664;2023-10-19T04:48:33;98291.00;;;12.24;93.37
61900;BME280;47853;55.890;37.664;2023-10-19T04:50:59;98284.06;;;12.23;92.22
61900;BME280;47853;55.890;37.664;2023-10-19T04:53:24;98295.69;;;12.69;89.76
61900;BME280;47853;55.890;37.664;2023-10-19T04:55:49;98289.56;;;13.28;85.93
61900;BME280;47853;55.890;37.664;2023-10-19T04:58:15;98287.00;;;13.40;82.17
61900;BME280;47853;55.890;37.664;2023-10-19T05:00:40;98286.22;;;13.32;82.31
61900;BME280;47853;55.890;37.664;2023-10-19T05:03:05;98293.56;;;13.51;80.93
61900;BME280;47853;55.890;37.664;2023-10-19T05:05:31;98285.44;;;13.32;79.95
61900;BME280;47853;55.890;37.664;2023-10-19T05:07:56;98295.78;;;13.60;76.65
61900;BME280;47853;55.890;37.664;2023-10-19T05:10:22;98294.75;;;13.61;75.97
61900;BME280;47853;55.890;37.664;2023-10-19T05:12:47;98290.28;;;13.48;74.84
61900;BME280;47853;55.890;37.664;2023-10-19T05:15:12;98292.00;;;13.29;73.75
61900;BME280;47853;55.890;37.664;2023-10-19T05:17:38;98299.19;;;13.22;76.83
61900;BME280;47853;55.890;37.664;2023-10-19T05:20:09;98298.25;;;13.87;74.23
61900;BME280;47853;55.890;37.664;2023-10-19T05:22:34;98300.41;;;14.04;72.87
61900;BME280;47853;55.890;37.664;2023-10-19T05:25:00;98294.00;;;14.37;70.24
61900;BME280;47853;55.890;37.664;2023-10-19T05:27:25;98304.38;;;13.95;74.23
61900;BME280;47853;55.890;37.664;2023-10-19T05:29:50;98304.88;;;14.10;76.41
61900;BME280;47853;55.890;37.664;2023-10-19T05:32:16;98295.94;;;13.20;78.51
61900;BME280;47853;55.890;37.664;2023-10-19T05:34:41;98300.59;;;12.72;84.99
61900;BME280;47853;55.890;37.664;2023-10-19T05:37:07;98301.50;;;13.12;83.84
61900;BME280;47853;55.890;37.664;2023-10-19T05:39:32;98308.34;;;12.87;83.61
61900;BME280;47853;55.890;37.664;2023-10-19T05:41:58;98304.06;;;11.99;89.25
61900;BME280;47853;55.890;37.664;2023-10-19T05:44:23;98301.69;;;11.28;94.85
61900;BME280;47853;55.890;37.664;2023-10-19T05:46:48;98312.09;;;12.06;95.17
61900;BME280;47853;55.890;37.664;2023-10-19T05:49:14;98316.41;;;12.33;92.73
61900;BME280;47853;55.890;37.664;2023-10-19T05:51:39;98308.19;;;12.62;90.23
61900;BME280;47853;55.890;37.664;2023-10-19T05:54:05;98307.78;;;13.31;87.26
61900;BME280;47853;55.890;37.664;2023-10-19T05:56:31;98318.06;;;13.73;82.44
61900;BME280;47853;55.890;37.664;2023-10-19T05:58:57;98315.00;;;13.69;82.56
61900;BME280;47853;55.890;37.664;2023-10-19T06:01:25;98308.13;;;12.96;88.16
61900;BME280;47853;55.890;37.664;2023-10-19T06:03:50;98305.69;;;13.40;84.62
61900;BME280;47853;55.890;37.664;2023-10-19T06:06:16;98310.66;;;12.43;88.63
61900;BME280;47853;55.890;37.664;2023-10-19T06:08:41;98317.91;;;13.09;91.17
61900;BME280;47853;55.890;37.664;2023-10-19T06:11:06;98311.19;;;13.58;88.64
61900;BME280;47853;55.890;37.664;2023-10-19T06:13:32;98314.00;;;13.63;84.89
61900;BME280;47853;55.890;37.664;2023-10-19T06:15:57;98325.59;;;13.83;83.62
61900;BME280;47853;55.890;37.664;2023-10-19T06:18:23;98319.59;;;13.87;85.83
61900;BME280;47853;55.890;37.664;2023-10-19T06:20:48;98311.28;;;13.25;86.90
61900;BME280;47853;55.890;37.664;2023-10-19T06:23:14;98300.25;;;13.21;86.18
61900;BME280;47853;55.890;37.664;2023-10-19T06:25:39;98318.63;;;12.57;89.23
61900;BME280;47853;55.890;37.664;2023-10-19T06:28:05;98317.00;;;12.42;92.63
61900;BME280;47853;55.890;37.664;2023-10-19T06:30:31;98311.88;;;12.54;90.95
61900;BME280;47853;55.890;37.664;2023-10-19T06:32:58;98314.16;;;13.23;94.49
61900;BME280;47853;55.890;37.664;2023-10-19T06:35:23;98322.91;;;12.78;91.48
61900;BME280;47853;55.890;37.664;2023-10-19T06:37:49;98306.78;;;12.06;96.34
61900;BME280;47853;55.890;37.664;2023-10-19T06:40:16;98319.66;;;12.36;96.06
61900;BME280;47853;55.890;37.664;2023-10-19T06:42:45;98313.47;;;11.88;100.00
61900;BME280;47853;55.890;37.664;2023-10-19T06:45:12;98322.13;;;12.17;98.88
61900;BME280;47853;55.890;37.664;2023-10-19T06:47:37;98309.25;;;12.14;99.56
61900;BME280;47853;55.890;37.664;2023-10-19T06:50:07;98308.41;;;12.54;96.36
61900;BME280;47853;55.890;37.664;2023-10-19T06:52:33;98315.72;;;11.78;99.50
61900;BME280;47853;55.890;37.664;2023-10-19T06:54:59;98317.78;;;11.89;100.00
61900;BME280;47853;55.890;37.664;2023-10-19T06:57:24;98316.63;;;12.18;99.15
61900;BME280;47853;55.890;37.664;2023-10-19T06:59:50;98315.19;;;12.02;100.00
61900;BME280;47853;55.890;37.664;2023-10-19T07:02:15;98322.03;;;11.70;98.48
61900;BME280;47853;55.890;37.664;2023-10-19T07:04:40;98329.91;;;12.12;99.22
61900;BME280;47853;55.890;37.664;2023-10-19T07:07:06;98317.25;;;12.21;95.81
61900;BME280;47853;55.890;37.664;2023-10-19T07:09:31;98330.94;;;12.24;97.06
61900;BME280;47853;55.890;37.664;2023-10-19T07:11:56;98332.09;;;12.96;93.61
61900;BME280;47853;55.890;37.664;2023-10-19T07:14:22;98328.44;;;12.70;93.42
61900;BME280;47853;55.890;37.664;2023-10-19T07:16:49;98329.84;;;12.86;92.51
61900;BME280;47853;55.890;37.664;2023-10-19T07:19:14;98330.06;;;12.91;94.89
61900;BME280;47853;55.890;37.664;2023-10-19T07:21:40;98334.22;;;13.32;88.79
61900;BME280;47853;55.890;37.664;2023-10-19T07:24:05;98330.91;;;13.44;90.10
61900;BME280;47853;55.890;37.664;2023-10-19T07:26:32;98335.03;;;12.60;91.60
61900;BME280;47853;55.890;37.664;2023-10-19T07:28:57;98332.09;;;13.55;93.26
61900;BME280;47853;55.890;37.664;2023-10-19T07:31:22;98334.75;;;13.61;87.41
61900;BME280;47853;55.890;37.664;2023-10-19T07:33:48;98347.00;;;13.17;90.20
61900;BME280;47853;55.890;37.664;2023-10-19T07:36:13;98347.53;;;13.46;87.01
61900;BME280;47853;55.890;37.664;2023-10-19T07:38:39;98349.78;;;13.49;87.37
61900;BME280;47853;55.890;37.664;2023-10-19T07:41:04;98346.25;;;13.94;87.34
61900;BME280;47853;55.890;37.664;2023-10-19T07:43:30;98347.25;;;13.09;84.91
61900;BME280;47853;55.890;37.664;2023-10-19T07:45:55;98343.84;;;12.41;90.08
61900;BME280;47853;55.890;37.664;2023-10-19T07:48:20;98337.84;;;12.79;93.40
61900;BME280;47853;55.890;37.664;2023-10-19T07:50:46;98335.13;;;13.06;87.65
61900;BME280;47853;55.890;37.664;2023-10-19T07:53:11;98343.84;;;12.14;95.87
61900;BME280;47853;55.890;37.664;2023-10-19T07:55:37;98343.97;;;12.93;92.58
61900;BME280;47853;55.890;37.664;2023-10-19T07:58:02;98349.78;;;12.50;92.84
61900;BME280;47853;55.890;37.664;2023-10-19T08:00:28;98342.41;;;12.38;94.29
61900;BME280;47853;55.890;37.664;2023-10-19T08:02:53;98351.00;;;12.07;96.87
61900;BME280;47853;55.890;37.664;2023-10-19T08:05:19;98346.09;;;12.64;96.02
61900;BME280;47853;55.890;37.664;2023-10-19T08:07:45;98358.97;;;12.81;93.71
61900;BME280;47853;55.890;37.664;2023-10-19T08:10:11;98352.84;;;12.46;92.81
61900;BME280;47853;55.890;37.664;2023-10-19T08:12:38;98349.59;;;12.38;97.02
61900;BME280;47853;55.890;37.664;2023-10-19T08:15:04;98351.03;;;12.47;95.62
61900;BME280;47853;55.890;37.664;2023-10-19T08:17:29;98354.47;;;12.00;99.83
61900;BME280;47853;55.890;37.664;2023-10-19T08:19:56;98349.97;;;12.61;98.34
61900;BME280;47853;55.890;37.664;2023-10-19T08:22:22;98356.03;;;13.16;95.43
61900;BME280;47853;55.890;37.664;2023-10-19T08:24:47;98346.16;;;11.61;100.00
61900;BME280;47853;55.890;37.664;2023-10-19T08:27:12;98358.09;;;13.00;97.25
61900;BME280;47853;55.890;37.664;2023-10-19T08:29:38;98354.91;;;13.44;97.67
61900;BME280;47853;55.890;37.664;2023-10-19T08:32:04;98356.50;;;13.97;93.58
61900;BME280;47853;55.890;37.664;2023-10-19T08:34:34;98358.72;;;13.09;90.70
61900;BME280;47853;55.890;37.664;2023-10-19T08:36:59;98352.13;;;13.18;93.43
61900;BME280;47853;55.890;37.664;2023-10-19T08:39:24;98361.28;;;13.43;93.35
61900;BME280;47853;55.890;37.664;2023-10-19T08:41:50;98365.22;;;13.79;92.93
61900;BME280;47853;55.890;37.664;2023-10-19T08:44:16;98366.47;;;13.17;92.47
61900;BME280;47853;55.890;37.664;2023-10-19T08:46:42;98359.72;;;13.74;89.50
61900;BME280;47853;55.890;37.664;2023-10-19T08:49:08;98363.75;;;13.51;89.59
61900;BME280;47853;55.890;37.664;2023-10-19T08:51:33;98363.50;;;13.91;87.32
61900;BME280;47853;55.890;37.664;2023-10-19T08:53:59;98361.31;;;14.71;83.16
61900;BME280;47853;55.890;37.664;2023-10-19T08:56:24;98371.59;;;14.17;81.73
61900;BME280;47853;55.890;37.664;2023-10-19T08:58:50;98370.25;;;14.84;81.14
61900;BME280;47853;55.890;37.664;2023-10-19T09:01:20;98374.91;;;14.63;83.20
61900;BME280;47853;55.890;37.664;2023-10-19T09:03:46;98373.91;;;15.27;87.77
61900;BME280;47853;55.890;37.664;2023-10-19T09:06:12;98379.00;;;15.65;81.59
61900;BME280;47853;55.890;37.664;2023-10-19T09:08:37;98383.34;;;15.48;79.02
61900;BME280;47853;55.890;37.664;2023-10-19T09:11:08;98376.28;;;15.54;81.64
61900;BME280;47853;55.890;37.664;2023-10-19T09:13:47;98379.63;;;14.42;83.31
61900;BME280;47853;55.890;37.664;2023-10-19T09:16:18;98375.81;;;13.47;89.91
61900;BME280;47853;55.890;37.664;2023-10-19T09:18:44;98384.72;;;13.20;86.81
61900;BME280;47853;55.890;37.664;2023-10-19T09:21:09;98385.13;;;13.17;90.57
61900;BME280;47853;55.890;37.664;2023-10-19T09:23:35;98387.47;;;12.46;92.60
61900;BME280;47853;55.890;37.664;2023-10-19T09:26:01;98373.06;;;13.67;91.24
61900;BME280;47853;55.890;37.664;2023-10-19T09:28:27;98378.47;;;13.60;87.34
61900;BME280;47853;55.890;37.664;2023-10-19T09:30:52;98376.66;;;13.41;85.83
61900;BME280;47853;55.890;37.664;2023-10-19T09:33:18;98377.38;;;13.68;89.36
61900;BME280;47853;55.890;37.664;2023-10-19T09:35:47;98386.19;;;14.07;83.53
61900;BME280;47853;55.890;37.664;2023-10-19T09:38:13;98381.38;;;13.91;85.63
61900;BME280;47853;55.890;37.664;2023-10-19T09:40:39;98383.47;;;14.21;88.10
61900;BME280;47853;55.890;37.664;2023-10-19T09:43:10;98374.16;;;13.98;85.39
61900;BME280;47853;55.890;37.664;2023-10-19T09:45:41;98379.69;;;14.29;90.42
61900;BME280;47853;55.890;37.664;2023-10-19T09:48:07;98381.25;;;14.43;88.50
61900;BME280;47853;55.890;37.664;2023-10-19T09:50:33;98381.91;;;14.64;88.25
61900;BME280;47853;55.890;37.664;2023-10-19T09:52:58;98391.22;;;14.55;85.97
61900;BME280;47853;55.890;37.664;2023-10-19T09:58:02;98389.00;;;14.52;85.12
61900;BME280;47853;55.890;37.664;2023-10-19T10:00:28;98390.22;;;14.24;85.15
61900;BME280;47853;55.890;37.664;2023-10-19T10:02:53;98397.28;;;14.69;89.52
61900;BME280;47853;55.890;37.664;2023-10-19T10:10:47;98382.53;;;14.34;84.10
61900;BME280;47853;55.890;37.664;2023-10-19T10:13:36;98389.09;;;14.06;85.61
61900;BME280;47853;55.890;37.664;2023-10-19T10:16:02;98384.31;;;13.83;88.00
61900;BME280;47853;55.890;37.664;2023-10-19T10:18:31;98389.28;;;14.11;89.69
61900;BME280;47853;55.890;37.664;2023-10-19T10:21:20;98392.94;;;14.17;89.34
61900;BME280;47853;55.890;37.664;2023-10-19T10:23:55;98385.34;;;13.82;88.76
61900;BME280;47853;55.890;37.664;2023-10-19T10:26:23;98389.06;;;13.74;89.07
61900;BME280;47853;55.890;37.664;2023-10-19T10:31:35;98385.66;;;13.99;89.32
61900;BME280;47853;55.890;37.664;2023-10-19T10:34:08;98382.94;;;14.05;90.81
61900;BME280;47853;55.890;37.664;2023-10-19T10:36:57;98389.88;;;14.13;91.26
61900;BME280;47853;55.890;37.664;2023-10-19T10:39:25;98390.97;;;14.31;91.00
61900;BME280;47853;55.890;37.664;2023-10-19T10:42:04;98386.81;;;14.10;90.59
61900;BME280;47853;55.890;37.664;2023-10-19T10:47:10;98386.53;;;13.92;90.23
61900;BME280;47853;55.890;37.664;2023-10-19T10:50:06;98393.00;;;13.65;90.23
61900;BME280;47853;55.890;37.664;2023-10-19T10:52:33;98390.34;;;13.58;91.46
61900;BME280;47853;55.890;37.664;2023-10-19T10:57:32;98382.94;;;13.73;89.67
61900;BME280;47853;55.890;37.664;2023-10-19T11:00:24;98385.75;;;14.17;88.17
61900;BME280;47853;55.890;37.664;2023-10-19T11:03:03;98393.28;;;13.88;89.30
61900;BME280;47853;55.890;37.664;2023-10-19T11:05:29;98389.66;;;13.83;89.58
61900;BME280;47853;55.890;37.664;2023-10-19T11:10:32;98397.72;;;14.08;93.50
61900;BME280;47853;55.890;37.664;2023-10-19T11:13:08;98400.56;;;13.74;92.04
61900;BME280;47853;55.890;37.664;2023-10-19T11:15:38;98394.97;;;13.83;88.87
61900;BME280;47853;55.890;37.664;2023-10-19T11:18:06;98389.94;;;13.61;87.99
61900;BME280;47853;55.890;37.664;2023-10-19T11:20:32;98389.19;;;13.33;91.16
61900;BME280;47853;55.890;37.664;2023-10-19T11:22:57;98396.63;;;13.11;96.30
61900;BME280;47853;55.890;37.664;2023-10-19T11:25:24;98396.69;;;12.44;96.84
61900;BME280;47853;55.890;37.664;2023-10-19T11:27:50;98400.34;;;12.90;96.84
61900;BME280;47853;55.890;37.664;2023-10-19T11:30:39;98399.53;;;12.96;91.84
61900;BME280;47853;55.890;37.664;2023-10-19T11:33:16;98379.25;;;12.75;93.92
61900;BME280;47853;55.890;37.664;2023-10-19T11:36:04;98363.88;;;12.84;95.72
61900;BME280;47853;55.890;37.664;2023-10-19T11:45:14;98398.13;;;12.73;100.00
61900;BME280;47853;55.890;37.664;2023-10-19T11:47:40;98398.81;;;13.41;96.04
61900;BME280;47853;55.890;37.664;2023-10-19T11:50:05;98380.50;;;12.45;95.53
61900;BME280;47853;55.890;37.664;2023-10-19T11:52:31;98402.41;;;12.21;97.89
61900;BME280;47853;55.890;37.664;2023-10-19T11:54:57;98387.88;;;12.30;97.80
61900;BME280;47853;55.890;37.664;2023-10-19T11:57:23;98394.16;;;13.23;94.79
61900;BME280;47853;55.890;37.664;2023-10-19T11:59:49;98383.81;;;13.54;89.72
61900;BME280;47853;55.890;37.664;2023-10-19T12:02:14;98381.00;;;13.35;89.78
61900;BME280;47853;55.890;37.664;2023-10-19T12:04:40;98391.78;;;12.41;92.69
61900;BME280;47853;55.890;37.664;2023-10-19T12:07:05;98397.88;;;12.95;92.12
61900;BME280;47853;55.890;37.664;2023-10-19T12:09:30;98383.50;;;13.16;91.97
61900;BME280;47853;55.890;37.664;2023-10-19T12:11:56;98393.81;;;12.59;95.13
61900;BME280;47853;55.890;37.664;2023-10-19T12:14:22;98394.94;;;13.37;94.48
61900;BME280;47853;55.890;37.664;2023-10-19T12:16:47;98391.13;;;12.93;95.13
61900;BME280;47853;55.890;37.664;2023-10-19T12:19:12;98394.28;;;13.42;89.43
61900;BME280;47853;55.890;37.664;2023-10-19T12:21:38;98385.78;;;13.13;90.33
61900;BME280;47853;55.890;37.664;2023-10-19T12:24:03;98388.94;;;13.55;88.46
61900;BME280;47853;55.890;37.664;2023-10-19T12:26:29;98387.16;;;13.88;84.98
61900;BME280;47853;55.890;37.664;2023-10-19T12:28:54;98393.63;;;13.60;86.19
61900;BME280;47853;55.890;37.664;2023-10-19T12:31:19;98389.84;;;13.22;87.03
61900;BME280;47853;55.890;37.664;2023-10-19T12:33:45;98407.97;;;13.66;84.50
61900;BME280;47853;55.890;37.664;2023-10-19T12:36:10;98395.28;;;13.61;83.98
61900;BME280;47853;55.890;37.664;2023-10-19T12:38:36;98394.84;;;13.64;85.29
61900;BME280;47853;55.890;37.664;2023-10-19T12:41:01;98405.03;;;13.08;85.92
61900;BME280;47853;55.890;37.664;2023-10-19T12:43:27;98406.44;;;13.24;89.52
61900;BME280;47853;55.890;37.664;2023-10-19T12:45:52;98413.41;;;13.18;91.92
61900;BME280;47853;55.890;37.664;2023-10-19T12:48:17;98413.00;;;13.28;91.55
61900;BME280;47853;55.890;37.664;2023-10-19T12:50:43;98405.63;;;13.24;91.45
61900;BME280;47853;55.890;37.664;2023-10-19T12:53:09;98410.38;;;13.81;91.81
61900;BME280;47853;55.890;37.664;2023-10-19T12:55:34;98405.59;;;13.89;89.86
61900;BME280;47853;55.890;37.664;2023-10-19T12:58:00;98383.75;;;14.38;87.26
61900;BME280;47853;55.890;37.664;2023-10-19T13:00:25;98407.22;;;14.29;85.34
61900;BME280;47853;55.890;37.664;2023-10-19T13:02:52;98397.59;;;13.30;86.21
61900;BME280;47853;55.890;37.664;2023-10-19T13:05:17;98407.44;;;13.50;87.03
61900;BME280;47853;55.890;37.664;2023-10-19T13:07:42;98403.44;;;13.66;85.75
61900;BME280;47853;55.890;37.664;2023-10-19T13:10:08;98394.03;;;14.02;84.27